sensor_id;sensor_type;location;lat;lon;timestamp;P1;durP1;ratioP1;P2;durP2;ratioP2
13122;SDS011;6627;50.920;12.050;2022-08-04T00:02:22;4.60;;;3.20;;
13122;SDS011;6627;50.920;12.050;2022-08-04T00:04:59;6.83;;;3.80;;
13122;SDS011;6627;50.920;12.050;2022-08-04T00:07:34;4.17;;;3.00;;
13122;SDS011;6627;50.920;12.050;2022-08-04T00:10:07;6.53;;;3.50;;
13122;SDS011;6627;50.920;12.050;2022-08-04T00:12:36;3.77;;;3.03;;
13122;SDS011;6627;50.920;12.050;2022-08-04T00:15:11;6.20;;;3.40;;
13122;SDS011;6627;50.920;12.050;2022-08-04T00:17:44;8.80;;;3.70;;
13122;SDS011;6627;50.920;12.050;2022-08-04T00:20:21;8.60;;;3.70;;
13122;SDS011;6627;50.920;12.050;2022-08-04T00:23:06;6.03;;;3.50;;
13122;SDS011;6627;50.920;12.050;2022-08-04T00:25:37;5.30;;;3.70;;
13122;SDS011;6627;50.920;12.050;2022-08-04T00:28:08;5.93;;;3.60;;
13122;SDS011;6627;50.920;12.050;2022-08-04T00:30:37;3.97;;;3.30;;
13122;SDS011;6627;50.920;12.050;2022-08-04T00:33:20;11.23;;;4.00;;
13122;SDS011;6627;50.920;12.050;2022-08-04T00:35:54;8.90;;;3.33;;
13122;SDS011;6627;50.920;12.050;2022-08-04T00:38:25;7.90;;;3.87;;
13122;SDS011;6627;50.920;12.050;2022-08-04T00:40:57;5.17;;;3.30;;
13122;SDS011;6627;50.920;12.050;2022-08-04T00:43:47;7.83;;;3.60;;
13122;SDS011;6627;50.920;12.050;2022-08-04T00:46:38;6.10;;;3.57;;
13122;SDS011;6627;50.920;12.050;2022-08-04T00:49:38;6.67;;;3.77;;
13122;SDS011;6627;50.920;12.050;2022-08-04T00:52:32;6.07;;;3.33;;
13122;SDS011;6627;50.920;12.050;2022-08-04T00:55:25;6.40;;;3.87;;
13122;SDS011;6627;50.920;12.050;2022-08-04T00:58:17;5.60;;;3.53;;
13122;SDS011;6627;50.920;12.050;2022-08-04T01:01:11;9.10;;;4.30;;
13122;SDS011;6627;50.920;12.050;2022-08-04T01:04:08;6.77;;;4.00;;
13122;SDS011;6627;50.920;12.050;2022-08-04T01:06:44;6.77;;;4.00;;
13122;SDS011;6627;50.920;12.050;2022-08-04T01:09:39;6.73;;;4.00;;
13122;SDS011;6627;50.920;12.050;2022-08-04T01:12:28;8.60;;;4.20;;
13122;SDS011;6627;50.920;12.050;2022-08-04T01:15:14;6.67;;;4.27;;
13122;SDS011;6627;50.920;12.050;2022-08-04T01:18:11;5.63;;;4.27;;
13122;SDS011;6627;50.920;12.050;2022-08-04T01:21:21;7.23;;;4.60;;
13122;SDS011;6627;50.920;12.050;2022-08-04T01:24:23;8.07;;;4.13;;
13122;SDS011;6627;50.920;12.050;2022-08-04T01:27:10;5.13;;;3.83;;
13122;SDS011;6627;50.920;12.050;2022-08-04T01:29:54;7.83;;;4.37;;
13122;SDS011;6627;50.920;12.050;2022-08-04T01:32:27;7.37;;;4.03;;
13122;SDS011;6627;50.920;12.050;2022-08-04T01:35:12;7.80;;;3.73;;
13122;SDS011;6627;50.920;12.050;2022-08-04T01:38:10;6.90;;;4.50;;
13122;SDS011;6627;50.920;12.050;2022-08-04T01:41:03;6.60;;;4.17;;
13122;SDS011;6627;50.920;12.050;2022-08-04T01:43:52;6.90;;;4.20;;
13122;SDS011;6627;50.920;12.050;2022-08-04T01:46:42;6.40;;;3.93;;
13122;SDS011;6627;50.920;12.050;2022-08-04T01:49:32;8.93;;;4.53;;
13122;SDS011;6627;50.920;12.050;2022-08-04T01:52:20;4.70;;;4.30;;
13122;SDS011;6627;50.920;12.050;2022-08-04T01:54:50;6.37;;;4.20;;
13122;SDS011;6627;50.920;12.050;2022-08-04T01:57:18;7.90;;;4.53;;
13122;SDS011;6627;50.920;12.050;2022-08-04T01:59:46;5.57;;;4.30;;
13122;SDS011;6627;50.920;12.050;2022-08-04T02:02:17;6.97;;;4.10;;
13122;SDS011;6627;50.920;12.050;2022-08-04T02:04:48;5.30;;;4.43;;
13122;SDS011;6627;50.920;12.050;2022-08-04T02:07:31;6.27;;;4.87;;
13122;SDS011;6627;50.920;12.050;2022-08-04T02:10:17;7.90;;;4.47;;
13122;SDS011;6627;50.920;12.050;2022-08-04T02:13:01;10.37;;;4.30;;
13122;SDS011;6627;50.920;12.050;2022-08-04T02:15:41;6.03;;;4.20;;
13122;SDS011;6627;50.920;12.050;2022-08-04T02:18:29;6.00;;;4.00;;
13122;SDS011;6627;50.920;12.050;2022-08-04T02:21:05;5.67;;;4.03;;
13122;SDS011;6627;50.920;12.050;2022-08-04T02:23:34;5.20;;;3.83;;
13122;SDS011;6627;50.920;12.050;2022-08-04T02:26:04;6.37;;;4.20;;
13122;SDS011;6627;50.920;12.050;2022-08-04T02:28:38;5.40;;;4.40;;
13122;SDS011;6627;50.920;12.050;2022-08-04T02:31:17;6.27;;;4.40;;
13122;SDS011;6627;50.920;12.050;2022-08-04T02:33:55;5.27;;;4.67;;
13122;SDS011;6627;50.920;12.050;2022-08-04T02:36:34;5.63;;;3.97;;
13122;SDS011;6627;50.920;12.050;2022-08-04T02:39:04;5.87;;;4.23;;
13122;SDS011;6627;50.920;12.050;2022-08-04T02:41:35;5.77;;;4.23;;
13122;SDS011;6627;50.920;12.050;2022-08-04T02:44:05;11.13;;;4.33;;
13122;SDS011;6627;50.920;12.050;2022-08-04T02:46:35;7.57;;;4.30;;
13122;SDS011;6627;50.920;12.050;2022-08-04T02:49:06;4.80;;;4.30;;
13122;SDS011;6627;50.920;12.050;2022-08-04T02:51:36;5.00;;;4.17;;
13122;SDS011;6627;50.920;12.050;2022-08-04T02:54:07;6.20;;;4.30;;
13122;SDS011;6627;50.920;12.050;2022-08-04T02:56:35;4.20;;;3.80;;
13122;SDS011;6627;50.920;12.050;2022-08-04T02:59:05;7.23;;;4.17;;
13122;SDS011;6627;50.920;12.050;2022-08-04T03:01:34;9.30;;;4.20;;
13122;SDS011;6627;50.920;12.050;2022-08-04T03:04:09;5.53;;;4.30;;
13122;SDS011;6627;50.920;12.050;2022-08-04T03:07:10;5.53;;;4.07;;
13122;SDS011;6627;50.920;12.050;2022-08-04T03:10:24;5.43;;;4.33;;
13122;SDS011;6627;50.920;12.050;2022-08-04T03:13:48;5.67;;;4.73;;
13122;SDS011;6627;50.920;12.050;2022-08-04T03:16:59;7.97;;;4.43;;
13122;SDS011;6627;50.920;12.050;2022-08-04T03:20:00;7.30;;;4.47;;
13122;SDS011;6627;50.920;12.050;2022-08-04T03:23:15;9.63;;;5.00;;
13122;SDS011;6627;50.920;12.050;2022-08-04T03:26:18;5.30;;;4.40;;
13122;SDS011;6627;50.920;12.050;2022-08-04T03:29:31;6.00;;;4.53;;
13122;SDS011;6627;50.920;12.050;2022-08-04T03:35:56;6.87;;;4.77;;
13122;SDS011;6627;50.920;12.050;2022-08-04T03:39:13;6.90;;;4.67;;
13122;SDS011;6627;50.920;12.050;2022-08-04T03:42:32;6.50;;;4.77;;
13122;SDS011;6627;50.920;12.050;2022-08-04T03:45:40;5.70;;;4.30;;
13122;SDS011;6627;50.920;12.050;2022-08-04T03:49:02;5.80;;;4.20;;
13122;SDS011;6627;50.920;12.050;2022-08-04T03:52:20;6.40;;;5.13;;
13122;SDS011;6627;50.920;12.050;2022-08-04T03:55:59;8.97;;;4.93;;
13122;SDS011;6627;50.920;12.050;2022-08-04T03:59:11;8.93;;;5.53;;
13122;SDS011;6627;50.920;12.050;2022-08-04T04:02:08;6.20;;;5.03;;
13122;SDS011;6627;50.920;12.050;2022-08-04T04:05:18;7.93;;;5.10;;
13122;SDS011;6627;50.920;12.050;2022-08-04T04:08:35;5.83;;;4.73;;
13122;SDS011;6627;50.920;12.050;2022-08-04T04:11:37;12.03;;;4.33;;
13122;SDS011;6627;50.920;12.050;2022-08-04T04:14:34;12.60;;;4.90;;
13122;SDS011;6627;50.920;12.050;2022-08-04T04:17:26;8.00;;;4.83;;
13122;SDS011;6627;50.920;12.050;2022-08-04T04:20:16;9.83;;;4.20;;
13122;SDS011;6627;50.920;12.050;2022-08-04T04:23:40;6.17;;;4.43;;
13122;SDS011;6627;50.920;12.050;2022-08-04T04:26:54;7.20;;;4.03;;
13122;SDS011;6627;50.920;12.050;2022-08-04T04:29:56;7.50;;;4.17;;
13122;SDS011;6627;50.920;12.050;2022-08-04T04:32:34;9.53;;;4.87;;
13122;SDS011;6627;50.920;12.050;2022-08-04T04:35:47;8.43;;;5.00;;
13122;SDS011;6627;50.920;12.050;2022-08-04T04:38:32;7.40;;;4.73;;
13122;SDS011;6627;50.920;12.050;2022-08-04T04:41:20;7.57;;;4.97;;
13122;SDS011;6627;50.920;12.050;2022-08-04T04:44:36;12.83;;;4.70;;
13122;SDS011;6627;50.920;12.050;2022-08-04T04:47:29;9.67;;;5.03;;
13122;SDS011;6627;50.920;12.050;2022-08-04T04:50:13;9.10;;;4.63;;
13122;SDS011;6627;50.920;12.050;2022-08-04T04:52:51;6.83;;;5.00;;
13122;SDS011;6627;50.920;12.050;2022-08-04T04:55:25;8.70;;;4.90;;
13122;SDS011;6627;50.920;12.050;2022-08-04T04:58:00;5.67;;;5.13;;
13122;SDS011;6627;50.920;12.050;2022-08-04T05:00:33;7.03;;;4.87;;
13122;SDS011;6627;50.920;12.050;2022-08-04T05:06:58;11.00;;;5.30;;
13122;SDS011;6627;50.920;12.050;2022-08-04T05:09:56;8.63;;;5.07;;
13122;SDS011;6627;50.920;12.050;2022-08-04T05:12:41;7.70;;;5.10;;
13122;SDS011;6627;50.920;12.050;2022-08-04T05:15:36;9.20;;;5.73;;
13122;SDS011;6627;50.920;12.050;2022-08-04T05:18:10;8.90;;;5.00;;
13122;SDS011;6627;50.920;12.050;2022-08-04T05:20:45;12.23;;;5.30;;
13122;SDS011;6627;50.920;12.050;2022-08-04T05:23:20;9.60;;;4.90;;
13122;SDS011;6627;50.920;12.050;2022-08-04T05:25:53;14.20;;;5.53;;
13122;SDS011;6627;50.920;12.050;2022-08-04T05:28:31;11.93;;;5.30;;
13122;SDS011;6627;50.920;12.050;2022-08-04T05:31:04;5.80;;;4.83;;
13122;SDS011;6627;50.920;12.050;2022-08-04T05:33:52;6.50;;;5.00;;
13122;SDS011;6627;50.920;12.050;2022-08-04T05:36:23;9.90;;;5.00;;
13122;SDS011;6627;50.920;12.050;2022-08-04T05:39:01;9.43;;;5.13;;
13122;SDS011;6627;50.920;12.050;2022-08-04T05:41:32;6.93;;;4.60;;
13122;SDS011;6627;50.920;12.050;2022-08-04T05:44:03;11.70;;;4.93;;
13122;SDS011;6627;50.920;12.050;2022-08-04T05:46:34;6.23;;;5.00;;
13122;SDS011;6627;50.920;12.050;2022-08-04T05:49:02;6.90;;;4.87;;
13122;SDS011;6627;50.920;12.050;2022-08-04T05:51:31;9.20;;;5.13;;
13122;SDS011;6627;50.920;12.050;2022-08-04T05:54:00;8.60;;;4.87;;
13122;SDS011;6627;50.920;12.050;2022-08-04T05:56:28;6.40;;;5.30;;
13122;SDS011;6627;50.920;12.050;2022-08-04T05:58:59;7.50;;;4.67;;
13122;SDS011;6627;50.920;12.050;2022-08-04T06:01:30;6.17;;;5.17;;
13122;SDS011;6627;50.920;12.050;2022-08-04T06:04:00;9.97;;;4.90;;
13122;SDS011;6627;50.920;12.050;2022-08-04T06:06:29;14.93;;;4.77;;
13122;SDS011;6627;50.920;12.050;2022-08-04T06:08:57;7.43;;;4.53;;
13122;SDS011;6627;50.920;12.050;2022-08-04T06:11:24;9.67;;;4.40;;
13122;SDS011;6627;50.920;12.050;2022-08-04T06:13:55;8.63;;;4.23;;
13122;SDS011;6627;50.920;12.050;2022-08-04T06:16:27;6.07;;;3.97;;
13122;SDS011;6627;50.920;12.050;2022-08-04T06:19:05;4.87;;;3.57;;
13122;SDS011;6627;50.920;12.050;2022-08-04T06:21:36;4.53;;;3.43;;
13122;SDS011;6627;50.920;12.050;2022-08-04T06:24:10;4.90;;;3.70;;
13122;SDS011;6627;50.920;12.050;2022-08-04T06:26:44;7.07;;;3.60;;
13122;SDS011;6627;50.920;12.050;2022-08-04T06:29:14;7.37;;;3.10;;
13122;SDS011;6627;50.920;12.050;2022-08-04T06:31:50;7.57;;;3.93;;
13122;SDS011;6627;50.920;12.050;2022-08-04T06:34:28;8.83;;;3.50;;
13122;SDS011;6627;50.920;12.050;2022-08-04T06:37:02;5.50;;;3.37;;
13122;SDS011;6627;50.920;12.050;2022-08-04T06:39:31;6.53;;;3.43;;
13122;SDS011;6627;50.920;12.050;2022-08-04T06:42:01;8.03;;;3.60;;
13122;SDS011;6627;50.920;12.050;2022-08-04T06:44:30;9.77;;;3.40;;
13122;SDS011;6627;50.920;12.050;2022-08-04T06:47:01;7.70;;;3.23;;
13122;SDS011;6627;50.920;12.050;2022-08-04T06:49:30;4.73;;;2.90;;
13122;SDS011;6627;50.920;12.050;2022-08-04T06:52:00;7.97;;;2.83;;
13122;SDS011;6627;50.920;12.050;2022-08-04T06:54:30;4.80;;;2.90;;
13122;SDS011;6627;50.920;12.050;2022-08-04T06:56:57;6.87;;;3.10;;
13122;SDS011;6627;50.920;12.050;2022-08-04T06:59:28;8.73;;;3.27;;
13122;SDS011;6627;50.920;12.050;2022-08-04T07:01:55;5.63;;;3.00;;
13122;SDS011;6627;50.920;12.050;2022-08-04T07:04:26;6.87;;;3.00;;
13122;SDS011;6627;50.920;12.050;2022-08-04T07:06:54;6.03;;;3.20;;
13122;SDS011;6627;50.920;12.050;2022-08-04T07:09:21;8.27;;;3.37;;
13122;SDS011;6627;50.920;12.050;2022-08-04T07:11:48;9.50;;;3.50;;
13122;SDS011;6627;50.920;12.050;2022-08-04T07:14:15;6.47;;;3.30;;
13122;SDS011;6627;50.920;12.050;2022-08-04T07:16:44;7.10;;;3.07;;
13122;SDS011;6627;50.920;12.050;2022-08-04T07:19:14;4.83;;;2.93;;
13122;SDS011;6627;50.920;12.050;2022-08-04T07:21:42;7.70;;;3.43;;
13122;SDS011;6627;50.920;12.050;2022-08-04T07:24:10;5.33;;;3.27;;
13122;SDS011;6627;50.920;12.050;2022-08-04T07:26:37;6.97;;;3.37;;
13122;SDS011;6627;50.920;12.050;2022-08-04T07:29:04;8.20;;;3.90;;
13122;SDS011;6627;50.920;12.050;2022-08-04T07:31:32;4.90;;;3.47;;
13122;SDS011;6627;50.920;12.050;2022-08-04T07:34:00;5.77;;;3.60;;
13122;SDS011;6627;50.920;12.050;2022-08-04T07:36:28;7.43;;;3.40;;
13122;SDS011;6627;50.920;12.050;2022-08-04T07:38:57;7.17;;;3.23;;
13122;SDS011;6627;50.920;12.050;2022-08-04T07:41:25;5.90;;;3.67;;
13122;SDS011;6627;50.920;12.050;2022-08-04T07:43:53;6.33;;;3.47;;
13122;SDS011;6627;50.920;12.050;2022-08-04T07:46:20;6.03;;;3.43;;
13122;SDS011;6627;50.920;12.050;2022-08-04T07:48:47;4.10;;;2.90;;
13122;SDS011;6627;50.920;12.050;2022-08-04T07:51:15;4.43;;;3.10;;
13122;SDS011;6627;50.920;12.050;2022-08-04T07:53:43;3.10;;;2.80;;
13122;SDS011;6627;50.920;12.050;2022-08-04T07:56:15;5.13;;;2.65;;
13122;SDS011;6627;50.920;12.050;2022-08-04T07:58:43;6.23;;;2.70;;
13122;SDS011;6627;50.920;12.050;2022-08-04T08:01:10;6.53;;;2.73;;
13122;SDS011;6627;50.920;12.050;2022-08-04T08:03:39;4.33;;;2.33;;
13122;SDS011;6627;50.920;12.050;2022-08-04T08:06:08;4.70;;;2.57;;
13122;SDS011;6627;50.920;12.050;2022-08-04T08:08:36;3.03;;;2.70;;
13122;SDS011;6627;50.920;12.050;2022-08-04T08:11:03;6.10;;;2.83;;
13122;SDS011;6627;50.920;12.050;2022-08-04T08:13:33;7.33;;;2.53;;
13122;SDS011;6627;50.920;12.050;2022-08-04T08:16:01;5.13;;;2.70;;
13122;SDS011;6627;50.920;12.050;2022-08-04T08:18:32;4.47;;;2.50;;
13122;SDS011;6627;50.920;12.050;2022-08-04T08:21:00;2.40;;;2.20;;
13122;SDS011;6627;50.920;12.050;2022-08-04T08:23:28;3.17;;;2.05;;
13122;SDS011;6627;50.920;12.050;2022-08-04T08:25:59;2.25;;;1.85;;
13122;SDS011;6627;50.920;12.050;2022-08-04T08:28:27;2.90;;;1.92;;
13122;SDS011;6627;50.920;12.050;2022-08-04T08:30:56;9.18;;;2.20;;
13122;SDS011;6627;50.920;12.050;2022-08-04T08:33:23;4.53;;;2.40;;
13122;SDS011;6627;50.920;12.050;2022-08-04T08:35:51;3.40;;;2.15;;
13122;SDS011;6627;50.920;12.050;2022-08-04T08:38:36;3.13;;;2.17;;
13122;SDS011;6627;50.920;12.050;2022-08-04T08:41:22;3.33;;;2.20;;
13122;SDS011;6627;50.920;12.050;2022-08-04T08:44:56;5.45;;;1.95;;
13122;SDS011;6627;50.920;12.050;2022-08-04T08:47:55;4.80;;;2.05;;
13122;SDS011;6627;50.920;12.050;2022-08-04T08:51:13;1.90;;;1.55;;
13122;SDS011;6627;50.920;12.050;2022-08-04T08:54:15;2.30;;;1.88;;
13122;SDS011;6627;50.920;12.050;2022-08-04T08:57:16;3.08;;;1.80;;
13122;SDS011;6627;50.920;12.050;2022-08-04T09:00:11;3.20;;;1.60;;
13122;SDS011;6627;50.920;12.050;2022-08-04T09:03:06;3.40;;;1.80;;
13122;SDS011;6627;50.920;12.050;2022-08-04T09:05:55;4.07;;;2.10;;
13122;SDS011;6627;50.920;12.050;2022-08-04T09:12:05;3.42;;;1.90;;
13122;SDS011;6627;50.920;12.050;2022-08-04T09:14:40;3.88;;;1.60;;
13122;SDS011;6627;50.920;12.050;2022-08-04T09:17:20;3.00;;;1.70;;
13122;SDS011;6627;50.920;12.050;2022-08-04T09:19:56;5.57;;;1.55;;
13122;SDS011;6627;50.920;12.050;2022-08-04T09:22:33;3.85;;;1.70;;
13122;SDS011;6627;50.920;12.050;2022-08-04T09:25:10;2.70;;;1.75;;
13122;SDS011;6627;50.920;12.050;2022-08-04T09:27:50;6.78;;;1.90;;
13122;SDS011;6627;50.920;12.050;2022-08-04T09:30:20;3.50;;;1.77;;
13122;SDS011;6627;50.920;12.050;2022-08-04T09:32:57;3.67;;;1.60;;
13122;SDS011;6627;50.920;12.050;2022-08-04T09:35:45;2.38;;;1.48;;
13122;SDS011;6627;50.920;12.050;2022-08-04T09:38:26;2.28;;;1.52;;
13122;SDS011;6627;50.920;12.050;2022-08-04T09:41:03;5.68;;;1.98;;
13122;SDS011;6627;50.920;12.050;2022-08-04T09:43:51;4.22;;;1.70;;
13122;SDS011;6627;50.920;12.050;2022-08-04T09:46:32;2.47;;;1.88;;
13122;SDS011;6627;50.920;12.050;2022-08-04T09:49:11;2.08;;;1.80;;
13122;SDS011;6627;50.920;12.050;2022-08-04T09:51:52;1.70;;;1.60;;
13122;SDS011;6627;50.920;12.050;2022-08-04T09:54:37;3.20;;;1.70;;
13122;SDS011;6627;50.920;12.050;2022-08-04T09:57:16;5.88;;;1.70;;
13122;SDS011;6627;50.920;12.050;2022-08-04T10:00:02;3.60;;;1.77;;
13122;SDS011;6627;50.920;12.050;2022-08-04T10:02:34;4.75;;;1.80;;
13122;SDS011;6627;50.920;12.050;2022-08-04T10:05:08;2.55;;;1.60;;
13122;SDS011;6627;50.920;12.050;2022-08-04T10:08:03;3.22;;;1.80;;
13122;SDS011;6627;50.920;12.050;2022-08-04T10:10:50;3.33;;;1.73;;
13122;SDS011;6627;50.920;12.050;2022-08-04T10:13:34;2.22;;;1.95;;
13122;SDS011;6627;50.920;12.050;2022-08-04T10:16:20;2.63;;;1.90;;
13122;SDS011;6627;50.920;12.050;2022-08-04T10:19:09;3.58;;;1.45;;
13122;SDS011;6627;50.920;12.050;2022-08-04T10:21:54;3.22;;;1.90;;
13122;SDS011;6627;50.920;12.050;2022-08-04T10:24:41;2.45;;;1.75;;
13122;SDS011;6627;50.920;12.050;2022-08-04T10:27:27;2.63;;;1.70;;
13122;SDS011;6627;50.920;12.050;2022-08-04T10:30:03;4.03;;;1.52;;
13122;SDS011;6627;50.920;12.050;2022-08-04T10:32:41;4.13;;;2.08;;
13122;SDS011;6627;50.920;12.050;2022-08-04T10:35:16;6.55;;;1.90;;
13122;SDS011;6627;50.920;12.050;2022-08-04T10:37:55;3.97;;;1.80;;
13122;SDS011;6627;50.920;12.050;2022-08-04T10:40:39;3.85;;;1.98;;
13122;SDS011;6627;50.920;12.050;2022-08-04T10:43:27;1.70;;;1.60;;
13122;SDS011;6627;50.920;12.050;2022-08-04T10:46:09;2.03;;;1.63;;
13122;SDS011;6627;50.920;12.050;2022-08-04T10:48:42;2.83;;;2.00;;
13122;SDS011;6627;50.920;12.050;2022-08-04T10:51:20;3.28;;;1.92;;
13122;SDS011;6627;50.920;12.050;2022-08-04T10:53:56;2.58;;;1.80;;
13122;SDS011;6627;50.920;12.050;2022-08-04T10:56:34;1.88;;;1.67;;
13122;SDS011;6627;50.920;12.050;2022-08-04T10:59:09;2.42;;;1.70;;
13122;SDS011;6627;50.920;12.050;2022-08-04T11:01:43;4.60;;;1.80;;
13122;SDS011;6627;50.920;12.050;2022-08-04T11:04:16;2.15;;;1.95;;
13122;SDS011;6627;50.920;12.050;2022-08-04T11:06:51;5.07;;;1.98;;
13122;SDS011;6627;50.920;12.050;2022-08-04T11:09:20;3.47;;;1.63;;
13122;SDS011;6627;50.920;12.050;2022-08-04T11:11:51;2.70;;;1.83;;
13122;SDS011;6627;50.920;12.050;2022-08-04T11:14:25;2.15;;;1.70;;
13122;SDS011;6627;50.920;12.050;2022-08-04T11:17:02;2.92;;;1.83;;
13122;SDS011;6627;50.920;12.050;2022-08-04T11:19:37;2.60;;;1.98;;
13122;SDS011;6627;50.920;12.050;2022-08-04T11:22:18;3.15;;;1.75;;
13122;SDS011;6627;50.920;12.050;2022-08-04T11:24:53;3.10;;;1.90;;
13122;SDS011;6627;50.920;12.050;2022-08-04T11:27:36;3.08;;;1.83;;
13122;SDS011;6627;50.920;12.050;2022-08-04T11:30:23;2.70;;;1.90;;
13122;SDS011;6627;50.920;12.050;2022-08-04T11:32:59;2.80;;;1.95;;
13122;SDS011;6627;50.920;12.050;2022-08-04T11:35:37;2.03;;;1.80;;
13122;SDS011;6627;50.920;12.050;2022-08-04T11:38:19;5.05;;;1.75;;
13122;SDS011;6627;50.920;12.050;2022-08-04T11:40:57;3.45;;;1.80;;
13122;SDS011;6627;50.920;12.050;2022-08-04T11:43:40;1.95;;;1.80;;
13122;SDS011;6627;50.920;12.050;2022-08-04T11:46:22;1.95;;;1.50;;
13122;SDS011;6627;50.920;12.050;2022-08-04T11:48:57;1.80;;;1.60;;
13122;SDS011;6627;50.920;12.050;2022-08-04T11:51:34;5.20;;;1.92;;
13122;SDS011;6627;50.920;12.050;2022-08-04T11:54:05;2.80;;;1.90;;
13122;SDS011;6627;50.920;12.050;2022-08-04T11:56:33;2.92;;;1.70;;
13122;SDS011;6627;50.920;12.050;2022-08-04T11:59:01;1.90;;;1.70;;
13122;SDS011;6627;50.920;12.050;2022-08-04T12:01:33;3.92;;;1.88;;
13122;SDS011;6627;50.920;12.050;2022-08-04T12:04:27;9.73;;;2.03;;
13122;SDS011;6627;50.920;12.050;2022-08-04T12:09:46;2.97;;;2.00;;
13122;SDS011;6627;50.920;12.050;2022-08-04T12:12:25;3.42;;;1.70;;
13122;SDS011;6627;50.920;12.050;2022-08-04T12:15:06;2.13;;;1.92;;
13122;SDS011;6627;50.920;12.050;2022-08-04T12:17:45;3.78;;;1.80;;
13122;SDS011;6627;50.920;12.050;2022-08-04T12:20:33;2.88;;;1.67;;
13122;SDS011;6627;50.920;12.050;2022-08-04T12:23:11;2.88;;;1.83;;
13122;SDS011;6627;50.920;12.050;2022-08-04T12:25:49;4.13;;;1.98;;
13122;SDS011;6627;50.920;12.050;2022-08-04T12:28:23;2.10;;;1.90;;
13122;SDS011;6627;50.920;12.050;2022-08-04T12:31:01;4.40;;;2.00;;
13122;SDS011;6627;50.920;12.050;2022-08-04T12:33:37;3.95;;;2.00;;
13122;SDS011;6627;50.920;12.050;2022-08-04T12:36:16;8.95;;;1.88;;
13122;SDS011;6627;50.920;12.050;2022-08-04T12:38:53;3.55;;;1.80;;
13122;SDS011;6627;50.920;12.050;2022-08-04T12:41:33;2.72;;;1.88;;
13122;SDS011;6627;50.920;12.050;2022-08-04T12:44:08;2.65;;;1.60;;
13122;SDS011;6627;50.920;12.050;2022-08-04T12:46:40;1.83;;;1.73;;
13122;SDS011;6627;50.920;12.050;2022-08-04T12:49:13;2.47;;;2.00;;
13122;SDS011;6627;50.920;12.050;2022-08-04T12:51:43;5.60;;;2.00;;
13122;SDS011;6627;50.920;12.050;2022-08-04T12:54:12;2.45;;;1.80;;
13122;SDS011;6627;50.920;12.050;2022-08-04T12:56:49;3.22;;;1.85;;
13122;SDS011;6627;50.920;12.050;2022-08-04T12:59:18;3.65;;;1.70;;
13122;SDS011;6627;50.920;12.050;2022-08-04T13:01:48;4.80;;;2.00;;
13122;SDS011;6627;50.920;12.050;2022-08-04T13:04:18;1.90;;;1.80;;
13122;SDS011;6627;50.920;12.050;2022-08-04T13:06:51;2.50;;;1.90;;
13122;SDS011;6627;50.920;12.050;2022-08-04T13:09:24;2.75;;;1.60;;
13122;SDS011;6627;50.920;12.050;2022-08-04T13:11:59;2.22;;;1.80;;
13122;SDS011;6627;50.920;12.050;2022-08-04T13:14:34;7.28;;;2.08;;
13122;SDS011;6627;50.920;12.050;2022-08-04T13:17:04;3.22;;;2.00;;
13122;SDS011;6627;50.920;12.050;2022-08-04T13:19:32;4.60;;;1.98;;
13122;SDS011;6627;50.920;12.050;2022-08-04T13:22:01;2.33;;;1.85;;
13122;SDS011;6627;50.920;12.050;2022-08-04T13:24:31;6.13;;;2.13;;
13122;SDS011;6627;50.920;12.050;2022-08-04T13:27:03;6.35;;;1.80;;
13122;SDS011;6627;50.920;12.050;2022-08-04T13:29:37;2.72;;;1.90;;
13122;SDS011;6627;50.920;12.050;2022-08-04T13:32:09;2.45;;;1.83;;
13122;SDS011;6627;50.920;12.050;2022-08-04T13:34:42;3.05;;;1.98;;
13122;SDS011;6627;50.920;12.050;2022-08-04T13:37:12;10.65;;;2.58;;
13122;SDS011;6627;50.920;12.050;2022-08-04T13:39:43;4.82;;;3.28;;
13122;SDS011;6627;50.920;12.050;2022-08-04T13:42:14;2.85;;;2.13;;
13122;SDS011;6627;50.920;12.050;2022-08-04T13:44:44;2.40;;;2.20;;
13122;SDS011;6627;50.920;12.050;2022-08-04T13:47:21;2.55;;;2.08;;
13122;SDS011;6627;50.920;12.050;2022-08-04T13:50:07;3.15;;;1.90;;
13122;SDS011;6627;50.920;12.050;2022-08-04T13:52:41;3.70;;;1.95;;
13122;SDS011;6627;50.920;12.050;2022-08-04T13:55:17;2.05;;;1.73;;
13122;SDS011;6627;50.920;12.050;2022-08-04T13:57:51;2.42;;;2.05;;
13122;SDS011;6627;50.920;12.050;2022-08-04T14:00:22;3.20;;;2.00;;
13122;SDS011;6627;50.920;12.050;2022-08-04T14:03:05;2.30;;;2.10;;
13122;SDS011;6627;50.920;12.050;2022-08-04T14:05:34;2.17;;;2.00;;
13122;SDS011;6627;50.920;12.050;2022-08-04T14:08:04;2.78;;;1.80;;
13122;SDS011;6627;50.920;12.050;2022-08-04T14:10:37;4.38;;;2.20;;
13122;SDS011;6627;50.920;12.050;2022-08-04T14:13:10;2.40;;;1.98;;
13122;SDS011;6627;50.920;12.050;2022-08-04T14:15:41;2.42;;;1.75;;
13122;SDS011;6627;50.920;12.050;2022-08-04T14:18:19;3.55;;;2.25;;
13122;SDS011;6627;50.920;12.050;2022-08-04T14:21:00;1.90;;;1.80;;
13122;SDS011;6627;50.920;12.050;2022-08-04T14:23:37;3.55;;;2.03;;
13122;SDS011;6627;50.920;12.050;2022-08-04T14:26:15;2.20;;;2.00;;
13122;SDS011;6627;50.920;12.050;2022-08-04T14:28:53;4.32;;;2.08;;
13122;SDS011;6627;50.920;12.050;2022-08-04T14:31:31;4.15;;;1.90;;
13122;SDS011;6627;50.920;12.050;2022-08-04T14:34:00;2.38;;;1.98;;
13122;SDS011;6627;50.920;12.050;2022-08-04T14:36:27;2.35;;;1.85;;
13122;SDS011;6627;50.920;12.050;2022-08-04T14:39:06;3.90;;;2.17;;
13122;SDS011;6627;50.920;12.050;2022-08-04T14:41:43;3.83;;;2.20;;
13122;SDS011;6627;50.920;12.050;2022-08-04T14:44:12;2.13;;;1.80;;
13122;SDS011;6627;50.920;12.050;2022-08-04T14:46:48;2.60;;;1.75;;
13122;SDS011;6627;50.920;12.050;2022-08-04T14:49:18;3.58;;;2.40;;
13122;SDS011;6627;50.920;12.050;2022-08-04T14:51:50;3.70;;;2.00;;
13122;SDS011;6627;50.920;12.050;2022-08-04T14:54:25;3.85;;;2.10;;
13122;SDS011;6627;50.920;12.050;2022-08-04T14:56:55;3.20;;;2.25;;
13122;SDS011;6627;50.920;12.050;2022-08-04T14:59:26;2.40;;;2.20;;
13122;SDS011;6627;50.920;12.050;2022-08-04T15:02:06;3.65;;;2.17;;
13122;SDS011;6627;50.920;12.050;2022-08-04T15:04:36;2.00;;;1.83;;
13122;SDS011;6627;50.920;12.050;2022-08-04T15:07:05;2.05;;;1.80;;
13122;SDS011;6627;50.920;12.050;2022-08-04T15:09:34;2.67;;;2.22;;
13122;SDS011;6627;50.920;12.050;2022-08-04T15:12:02;2.47;;;2.10;;
13122;SDS011;6627;50.920;12.050;2022-08-04T15:14:30;3.85;;;1.92;;
13122;SDS011;6627;50.920;12.050;2022-08-04T15:16:59;2.80;;;1.80;;
13122;SDS011;6627;50.920;12.050;2022-08-04T15:19:28;3.10;;;2.00;;
13122;SDS011;6627;50.920;12.050;2022-08-04T15:21:58;6.00;;;1.80;;
13122;SDS011;6627;50.920;12.050;2022-08-04T15:24:26;3.72;;;2.00;;
13122;SDS011;6627;50.920;12.050;2022-08-04T15:26:54;3.83;;;2.00;;
13122;SDS011;6627;50.920;12.050;2022-08-04T15:29:26;3.45;;;2.10;;
13122;SDS011;6627;50.920;12.050;2022-08-04T15:32:03;6.25;;;1.88;;
13122;SDS011;6627;50.920;12.050;2022-08-04T15:34:42;2.90;;;1.98;;
13122;SDS011;6627;50.920;12.050;2022-08-04T15:37:13;2.45;;;1.90;;
13122;SDS011;6627;50.920;12.050;2022-08-04T15:39:52;3.85;;;2.10;;
13122;SDS011;6627;50.920;12.050;2022-08-04T15:42:29;2.58;;;2.22;;
13122;SDS011;6627;50.920;12.050;2022-08-04T15:50:59;3.75;;;2.10;;
13122;SDS011;6627;50.920;12.050;2022-08-04T15:56:48;3.80;;;1.88;;
13122;SDS011;6627;50.920;12.050;2022-08-04T16:02:36;2.25;;;2.08;;
13122;SDS011;6627;50.920;12.050;2022-08-04T16:08:13;2.10;;;2.00;;
13122;SDS011;6627;50.920;12.050;2022-08-04T16:10:45;2.38;;;2.00;;
13122;SDS011;6627;50.920;12.050;2022-08-04T16:13:15;3.08;;;2.28;;
13122;SDS011;6627;50.920;12.050;2022-08-04T16:15:47;1.92;;;1.83;;
13122;SDS011;6627;50.920;12.050;2022-08-04T16:18:21;3.53;;;2.30;;
13122;SDS011;6627;50.920;12.050;2022-08-04T16:21:16;3.15;;;2.00;;
13122;SDS011;6627;50.920;12.050;2022-08-04T16:23:53;2.88;;;1.98;;
13122;SDS011;6627;50.920;12.050;2022-08-04T16:26:52;5.72;;;1.85;;
13122;SDS011;6627;50.920;12.050;2022-08-04T16:29:25;3.85;;;2.35;;